Pagrindinis puslapis
METAR-TAF:

METAR-TAF

Oro uostai :

Kunmingas, Kinija

platuma: 25-01N, ilguma: 102-41E, Aukštis: 1892 m

Dabartinis oras

Ataskaita buvo paskelbta 42 minutes, ne 22:00 UTC
Vėjas 6 kt iš Pietų/Pietvakarių
Temperatūra 9°C
Drėgmė 100%
Slėgis 1029 hPa
Matomumas: 6000 m
Išsisklaidę debesys ne aukštis 2000 ft

METAR: ZPPP 212200Z 21003MPS 6000 SCT020 09/09 Q1029 NOSIG

Laikas: 06:42 (22:42 UTC)

Prognozė

Ataskaita buvo paskelbta 7 valandos ir 32 minutes, ne 15:10 UTC
Prognozė galioja nuo 21 metu 18 UTC su 22 metu 18 UTC
Vėjas 14 kt iš Pietvakarių
Matomumas 10 km arba daugiau
Išsisklaidę debesys ne aukštis 2600 ft
Laikinai
nuo 21 metu 18 UTC su 21 metu 22 UTC
Matomumas: 2000 m
Su prošvaistėmis ne aukštis 300 ft
rūkana

TAF: ZPPP 211510Z 2118/2218 22007MPS 9999 SCT026 TX19/2208Z TN06/2123Z TEMPO 2118/2122 2000 BR BKN003

Orai ataskaitas ir orų prognozės (METAR, TAF).

turimą stotys yra geltonos ir raudonos taškus žemėlapyje.

Perkelti pele per norėdami pamatyti stoties vardą.

Tada spustelėkite, norėdami matyti oro stebėjimo ir prognozės.

Norėdami pakeisti žemėlapį: spustelėkite ant žalios mygtukų su juodo kryžiaus žemyn,; žalią mygtuką su brūkšneliu, jei norite nutolinti; arba žalių rodyklių gretimoms žemėlapius.


METAR-TAF: